Time;durP1;ratioP1;P1;durP2;ratioP2;P2;SDS_P1;SDS_P2;PMS_P1;PMS_P2;Temp;Humidity;BMP_temperature;BMP_pressure;BME280_temperature;BME280_humidity;BME280_pressure;Samples;Min_cycle;Max_cycle;Signal;HPM_P1;HPM_P2
2022/10/07 00:00:54;;;;;;;;;12.00;9.67;;;;;13.27;98.70;102071.44;4889347;29;45489;-83
2022/10/07 00:03:22;;;;;;;;;13.00;13.00;;;;;13.29;99.57;102069.75;4887435;29;46131;-83
2022/10/07 00:06:02;;;;;;;;;14.33;13.00;;;;;13.26;99.88;102064.25;4869834;29;45314;-83
2022/10/07 00:08:27;;;;;;;;;14.00;13.33;;;;;13.26;100.00;102072.28;4892278;29;45421;-83
2022/10/07 00:10:53;;;;;;;;;9.33;9.33;;;;;13.20;100.00;102064.13;4886659;29;45449;-83
2022/10/07 00:13:18;;;;;;;;;13.33;13.00;;;;;13.16;100.00;102057.78;4893259;29;47005;-83
2022/10/07 00:15:44;;;;;;;;;11.00;11.00;;;;;13.15;100.00;102060.44;4887626;29;45443;-83
2022/10/07 00:18:10;;;;;;;;;14.00;10.67;;;;;13.07;100.00;102051.31;4887739;29;45379;-83
2022/10/07 00:20:38;;;;;;;;;11.00;11.00;;;;;13.14;100.00;102069.31;4888649;29;44842;-83
2022/10/07 00:23:04;;;;;;;;;11.33;10.67;;;;;13.06;100.00;102049.53;4875536;29;47953;-82
2022/10/07 00:25:29;;;;;;;;;10.33;10.00;;;;;13.10;100.00;102057.66;4887213;29;45467;-83
2022/10/07 00:27:55;;;;;;;;;12.00;11.67;;;;;13.05;100.00;102059.31;4871597;29;45429;-83
2022/10/07 00:30:20;;;;;;;;;11.00;9.67;;;;;13.04;100.00;102057.50;4889417;29;45472;-82
2022/10/07 00:32:46;;;;;;;;;14.33;12.33;;;;;13.02;100.00;102054.78;4874624;29;47142;-83
2022/10/07 00:35:12;;;;;;;;;14.33;13.67;;;;;13.04;100.00;102068.16;4874764;29;45478;-83
2022/10/07 00:37:41;;;;;;;;;11.67;11.67;;;;;12.92;100.00;102039.38;4891761;29;45470;-83
2022/10/07 00:43:30;;;;;;;;;9.67;9.67;;;;;12.94;100.00;102045.66;4891124;29;45661;-82
2022/10/07 00:46:11;;;;;;;;;10.33;10.33;;;;;12.92;100.00;102042.06;4875286;29;45606;-83
2022/10/07 00:48:38;;;;;;;;;11.00;11.00;;;;;12.92;100.00;102042.06;4892990;29;45523;-83
2022/10/07 00:51:05;;;;;;;;;11.67;10.33;;;;;12.93;100.00;102043.88;4903475;29;45370;-83
2022/10/07 00:53:37;;;;;;;;;10.00;10.00;;;;;12.87;100.00;102038.38;4903180;29;46792;-83
2022/10/07 00:56:04;;;;;;;;;12.00;11.67;;;;;12.92;100.00;102047.41;4890900;29;46081;-83
2022/10/07 00:58:33;;;;;;;;;9.33;9.33;;;;;12.89;100.00;102042.00;4874881;29;45324;-83
2022/10/07 01:00:59;;;;;;;;;8.00;8.00;;;;;12.81;100.00;102033.78;4892156;29;45423;-83
2022/10/07 01:03:25;;;;;;;;;10.00;7.67;;;;;12.77;100.00;102026.56;4890937;29;45506;-83
2022/10/07 01:05:51;;;;;;;;;8.67;8.67;;;;;12.76;100.00;102029.19;4891013;29;45554;-83
2022/10/07 01:08:18;;;;;;;;;11.00;7.67;;;;;12.75;100.00;102033.63;4887514;29;45439;-83
2022/10/07 01:11:12;;;;;;;;;12.00;6.67;;;;;12.73;100.00;102029.13;4900568;29;45444;-83
2022/10/07 01:14:07;;;;;;;;;9.33;7.33;;;;;12.70;100.00;102027.25;4891567;29;45471;-82
2022/10/07 01:17:10;;;;;;;;;9.67;9.67;;;;;12.67;100.00;102015.63;4833969;29;45473;-83
2022/10/07 01:20:06;;;;;;;;;10.67;10.00;;;;;12.64;100.00;102012.84;4794674;29;44889;-82
2022/10/07 01:22:53;;;;;;;;;8.67;6.00;;;;;12.61;100.00;102013.69;4777267;29;45573;-83
2022/10/07 01:25:40;;;;;;;;;10.67;9.00;;;;;12.57;100.00;102014.47;4776527;29;47320;-83
2022/10/07 01:28:38;;;;;;;;;8.00;5.33;;;;;12.54;100.00;101999.28;4777019;29;45386;-83
2022/10/07 01:31:07;;;;;;;;;6.33;6.33;;;;;12.51;100.00;102007.19;4776617;29;45558;-83
2022/10/07 01:33:35;;;;;;;;;11.00;7.00;;;;;12.50;100.00;102010.75;4794991;29;45627;-83
2022/10/07 01:36:09;;;;;;;;;6.00;6.00;;;;;12.44;100.00;102004.31;4795041;29;45474;-83
2022/10/07 01:38:40;;;;;;;;;9.00;6.33;;;;;12.33;100.00;101988.94;4778720;29;46194;-83
2022/10/07 01:41:17;;;;;;;;;9.00;8.67;;;;;12.37;100.00;101987.25;4778407;29;45497;-83
2022/10/07 01:43:45;;;;;;;;;10.33;7.67;;;;;12.29;100.00;101978.16;4795307;29;45592;-82
2022/10/07 01:46:20;;;;;;;;;6.00;6.00;;;;;12.36;100.00;101988.09;4794829;29;48208;-83
2022/10/07 01:48:46;;;;;;;;;5.00;4.00;;;;;12.30;100.00;101977.28;4779445;29;45505;-82
2022/10/07 01:51:18;;;;;;;;;8.67;6.00;;;;;12.34;100.00;101979.16;4777494;29;45451;-82
2022/10/07 01:53:49;;;;;;;;;8.67;6.33;;;;;12.34;100.00;101981.81;4800502;29;45842;-83
2022/10/07 01:56:35;;;;;;;;;8.67;7.67;;;;;12.32;100.00;101979.13;4864257;29;46965;-82
2022/10/07 01:59:25;;;;;;;;;6.33;6.00;;;;;12.33;100.00;101974.69;4868817;29;45421;-83
2022/10/07 02:02:12;;;;;;;;;7.00;6.00;;;;;12.33;100.00;101975.59;4868440;29;45380;-82
2022/10/07 02:05:18;;;;;;;;;6.33;6.33;;;;;12.25;100.00;101963.81;4868523;29;45447;-83
2022/10/07 02:08:06;;;;;;;;;3.33;1.67;;;;;12.30;100.00;101963.94;4810276;29;47395;-83
2022/10/07 02:10:41;;;;;;;;;9.67;6.67;;;;;12.24;100.00;101953.09;4809793;29;45174;-83
2022/10/07 02:13:21;;;;;;;;;8.00;8.00;;;;;12.26;100.00;101952.31;4810789;29;45503;-83
2022/10/07 02:16:00;;;;;;;;;4.33;4.33;;;;;12.26;100.00;101946.97;4812307;29;45982;-83
2022/10/07 02:18:30;;;;;;;;;5.67;5.67;;;;;12.24;100.00;101939.75;4811510;29;47194;-83
2022/10/07 02:20:56;;;;;;;;;10.00;6.00;;;;;12.24;100.00;101939.75;4797006;29;45443;-83
2022/10/07 02:23:24;;;;;;;;;5.67;5.67;;;;;12.12;100.00;101917.25;4812227;29;45538;-82
2022/10/07 02:25:52;;;;;;;;;7.33;6.00;;;;;12.17;100.00;101931.59;4812157;29;45517;-82
2022/10/07 02:28:23;;;;;;;;;8.00;6.67;;;;;12.20;100.00;101926.38;4812030;29;45516;-83
2022/10/07 02:30:52;;;;;;;;;6.00;5.00;;;;;12.24;100.00;101934.44;4798936;29;45665;-83
2022/10/07 02:33:21;;;;;;;;;10.00;9.00;;;;;12.23;100.00;101924.66;4798186;29;45579;-83
2022/10/07 02:35:51;;;;;;;;;7.00;7.00;;;;;12.21;100.00;101916.59;4817303;29;45328;-83
2022/10/07 02:38:17;;;;;;;;;10.00;7.67;;;;;12.23;100.00;101913.97;4832680;29;45633;-83
2022/10/07 02:40:49;;;;;;;;;5.33;5.00;;;;;12.26;100.00;101916.69;4816614;29;45467;-83
2022/10/07 02:43:55;;;;;;;;;10.33;8.33;;;;;12.24;100.00;101910.44;4831973;29;45463;-83
2022/10/07 02:46:21;;;;;;;;;7.67;7.67;;;;;12.24;100.00;101913.09;4870727;29;45808;-83
2022/10/07 02:48:52;;;;;;;;;7.00;6.33;;;;;12.17;100.00;101898.72;4868493;29;47142;-83
2022/10/07 02:51:21;;;;;;;;;7.00;7.00;;;;;12.16;100.00;101912.91;4864252;29;45307;-82
2022/10/07 02:53:50;;;;;;;;;9.00;8.33;;;;;12.12;100.00;101906.59;4886537;29;45576;-83
2022/10/07 02:56:19;;;;;;;;;6.33;6.33;;;;;12.05;100.00;101896.63;4872527;29;44906;-82
2022/10/07 02:58:46;;;;;;;;;8.67;8.67;;;;;12.01;100.00;101898.28;4871798;29;45612;-83
2022/10/07 03:01:20;;;;;;;;;6.00;6.00;;;;;12.04;100.00;101897.50;4855923;29;45477;-83
2022/10/07 03:03:46;;;;;;;;;9.33;9.33;;;;;12.00;100.00;101895.59;4886226;29;45484;-83
2022/10/07 03:06:13;;;;;;;;;11.67;9.00;;;;;12.00;100.00;101898.28;4875482;29;45484;-82
2022/10/07 03:08:39;;;;;;;;;10.33;9.00;;;;;11.91;100.00;101887.34;4880882;29;46861;-82
2022/10/07 03:11:05;;;;;;;;;9.00;7.00;;;;;11.92;100.00;101891.84;4871617;29;45434;-83
2022/10/07 03:13:30;;;;;;;;;12.00;11.00;;;;;11.93;100.00;101899.84;4871422;29;45437;-82
2022/10/07 03:15:55;;;;;;;;;10.67;9.00;;;;;11.87;100.00;101882.75;4871804;29;45356;-83
2022/10/07 03:18:28;;;;;;;;;7.00;7.00;;;;;11.89;100.00;101889.97;4887464;29;48355;-83
2022/10/07 03:20:55;;;;;;;;;9.00;9.00;;;;;11.86;100.00;101881.88;4890485;29;45790;-83
2022/10/07 03:23:22;;;;;;;;;9.00;8.67;;;;;11.88;100.00;101881.91;4887895;29;45400;-83
2022/10/07 03:25:50;;;;;;;;;7.33;6.00;;;;;11.92;100.00;101884.72;4890561;29;45383;-83
2022/10/07 03:28:17;;;;;;;;;10.00;9.00;;;;;11.87;100.00;101873.00;4873575;29;48218;-83
2022/10/07 03:30:42;;;;;;;;;11.00;10.33;;;;;11.89;100.00;101875.75;4872598;29;45624;-83
2022/10/07 03:33:08;;;;;;;;;10.67;8.00;;;;;11.86;100.00;101881.88;4888293;29;45503;-83
2022/10/07 03:35:33;;;;;;;;;16.33;9.00;;;;;11.82;100.00;101869.31;4886705;29;45739;-83
2022/10/07 03:37:59;;;;;;;;;8.33;8.33;;;;;11.83;100.00;101871.09;4870677;29;46925;-82
2022/10/07 03:40:25;;;;;;;;;12.33;11.33;;;;;11.73;100.00;101864.63;4873867;29;44824;-83
2022/10/07 03:42:50;;;;;;;;;7.33;7.33;;;;;11.71;100.00;101863.69;4890125;29;45347;-83
2022/10/07 03:45:16;;;;;;;;;11.00;9.33;;;;;11.75;100.00;101870.00;4888500;29;45265;-83
2022/10/07 03:47:41;;;;;;;;;9.00;9.00;;;;;11.68;100.00;101857.38;4873971;29;46983;-83
2022/10/07 03:50:08;;;;;;;;;10.33;9.67;;;;;11.70;100.00;101869.88;4874652;29;45303;-83
2022/10/07 03:52:35;;;;;;;;;11.00;9.33;;;;;11.66;100.00;101868.00;4891493;29;45727;-83
2022/10/07 03:55:01;;;;;;;;;9.00;7.33;;;;;11.67;100.00;101872.44;4873809;29;44869;-83
2022/10/07 04:00:20;;;;;;;;;6.67;6.67;;;;;11.63;100.00;101870.56;4889909;29;45778;-82
2022/10/07 04:02:52;;;;;;;;;8.00;7.33;;;;;11.63;100.00;101867.91;4872273;29;45675;-83
2022/10/07 04:05:20;;;;;;;;;7.00;6.00;;;;;11.58;100.00;101861.56;4880507;29;45369;-83
2022/10/07 04:07:47;;;;;;;;;9.00;5.00;;;;;11.59;100.00;101860.69;4892077;29;46258;-83
2022/10/07 04:10:15;;;;;;;;;5.33;4.67;;;;;11.58;100.00;101861.56;4874025;29;45444;-82
2022/10/07 04:12:44;;;;;;;;;6.67;5.00;;;;;11.59;100.00;101866.00;4891649;29;45945;-83
2022/10/07 04:15:12;;;;;;;;;9.00;5.00;;;;;11.55;100.00;101848.13;4891810;29;45593;-83
2022/10/07 04:17:39;;;;;;;;;4.67;4.67;;;;;11.57;100.00;101862.41;4890786;29;46021;-83
2022/10/07 04:20:05;;;;;;;;;8.33;6.33;;;;;11.48;100.00;101848.84;4890494;29;45411;-83
2022/10/07 04:22:31;;;;;;;;;9.67;8.67;;;;;11.48;100.00;101846.16;4886791;29;45414;-83
2022/10/07 04:27:41;;;;;;;;;8.67;6.67;;;;;11.42;100.00;101846.91;4889130;29;45428;-83
2022/10/07 04:30:07;;;;;;;;;10.67;10.00;;;;;11.39;100.00;101858.38;4889969;29;45353;-82
2022/10/07 04:32:33;;;;;;;;;10.00;8.00;;;;;11.41;100.00;101856.66;4890872;29;45380;-84
2022/10/07 04:35:00;;;;;;;;;7.00;5.67;;;;;11.41;100.00;101861.06;4890704;29;45796;-83
2022/10/07 04:37:27;;;;;;;;;8.00;4.33;;;;;11.39;100.00;101861.03;4889146;29;47091;-83
2022/10/07 04:39:52;;;;;;;;;9.67;8.00;;;;;11.39;100.00;101858.38;4891413;29;44756;-83
2022/10/07 04:45:01;;;;;;;;;6.67;6.67;;;;;11.37;100.00;101844.09;4891931;29;45417;-83
2022/10/07 04:47:27;;;;;;;;;9.00;8.00;;;;;11.36;100.00;101846.72;4874757;29;46939;-83
2022/10/07 04:49:53;;;;;;;;;8.00;8.00;;;;;11.33;100.00;101836.88;4891501;29;45379;-83
2022/10/07 04:52:19;;;;;;;;;11.67;10.33;;;;;11.36;100.00;101846.72;4890669;29;45815;-83
2022/10/07 04:54:45;;;;;;;;;16.00;16.00;;;;;11.34;100.00;101843.13;4873582;29;45404;-84
2022/10/07 04:57:12;;;;;;;;;18.33;16.00;;;;;11.25;100.00;101832.19;4891141;29;45641;-83
2022/10/07 04:59:38;;;;;;;;;31.33;27.67;;;;;11.30;100.00;101842.13;4890972;29;45839;-82
2022/10/07 05:02:03;;;;;;;;;24.33;23.67;;;;;11.30;100.00;101836.78;4890163;29;45749;-82
2022/10/07 05:04:28;;;;;;;;;24.00;24.00;;;;;11.27;100.00;101831.38;4891595;29;45595;-83
2022/10/07 05:06:54;;;;;;;;;22.00;20.67;;;;;11.31;100.00;101846.59;4891274;29;44900;-83
2022/10/07 05:09:19;;;;;;;;;20.00;19.00;;;;;11.29;100.00;101829.69;4890272;29;45586;-83
2022/10/07 05:11:45;;;;;;;;;17.00;14.67;;;;;11.30;100.00;101839.44;4891731;29;45434;-82
2022/10/07 05:17:32;;;;;;;;;9.67;9.67;;;;;11.28;100.00;101832.28;4891762;29;45335;-83
2022/10/07 05:19:57;;;;;;;;;11.33;10.67;;;;;11.29;100.00;101831.41;4892126;29;45371;-83
2022/10/07 05:22:23;;;;;;;;;11.00;9.33;;;;;11.31;100.00;101835.94;4897779;29;45504;-83
2022/10/07 05:24:48;;;;;;;;;10.00;10.00;;;;;11.27;100.00;101826.06;4891309;29;45612;-83
2022/10/07 05:27:14;;;;;;;;;9.33;9.00;;;;;11.26;100.00;101829.56;4876907;29;48189;-83
2022/10/07 05:30:29;;;;;;;;;12.33;10.33;;;;;11.25;100.00;101822.47;4892461;29;44836;-82
2022/10/07 05:32:55;;;;;;;;;14.33;12.67;;;;;11.21;100.00;101832.09;4891999;29;45447;-83
2022/10/07 05:35:21;;;;;;;;;9.67;9.00;;;;;11.21;100.00;101833.88;4901321;29;45565;-83
2022/10/07 05:37:52;;;;;;;;;10.00;10.00;;;;;11.18;100.00;101832.00;4895174;29;45536;-82
2022/10/07 05:40:18;;;;;;;;;16.00;12.33;;;;;11.14;100.00;101834.53;4892757;29;45496;-83
2022/10/07 05:42:43;;;;;;;;;11.33;10.00;;;;;11.09;100.00;101821.09;4877017;29;45354;-84
2022/10/07 05:45:09;;;;;;;;;12.67;12.67;;;;;11.08;100.00;101826.38;4892023;29;45366;-83
2022/10/07 05:47:35;;;;;;;;;9.00;9.00;;;;;11.09;100.00;101821.09;4890839;29;45611;-84
2022/10/07 05:50:00;;;;;;;;;14.00;11.00;;;;;11.10;100.00;101827.31;4906074;29;45463;-83
2022/10/07 05:52:26;;;;;;;;;13.00;12.00;;;;;11.06;100.00;101822.78;4890546;29;45542;-83
2022/10/07 05:54:51;;;;;;;;;12.33;12.33;;;;;11.07;100.00;101821.91;4904570;29;45555;-83
2022/10/07 06:00:41;;;;;;;;;12.00;12.00;;;;;11.12;100.00;101825.59;4893266;29;45059;-86
2022/10/07 06:03:07;;;;;;;;;10.00;10.00;;;;;11.09;100.00;101825.50;4892646;29;45401;-86
2022/10/07 06:05:33;;;;;;;;;10.33;9.00;;;;;11.11;100.00;101829.13;4899893;29;45546;-86
2022/10/07 06:07:58;;;;;;;;;14.33;13.00;;;;;11.08;100.00;101827.28;4891828;29;47495;-86
2022/10/07 06:13:09;;;;;;;;;17.00;17.00;;;;;10.97;100.00;101800.34;4892497;29;45544;-86
2022/10/07 06:15:43;;;;;;;;;19.00;17.67;;;;;11.15;100.00;101831.00;4880452;29;45269;-86
2022/10/07 06:18:08;;;;;;;;;17.33;15.67;;;;;10.89;100.00;101780.59;4879491;29;47619;-87
2022/10/07 06:20:57;;;;;;;;;18.00;17.33;;;;;11.14;100.00;101826.56;4856564;29;45329;-87
2022/10/07 06:23:22;;;;;;;;;17.67;16.67;;;;;11.15;100.00;101825.69;4857884;29;44801;-86
2022/10/07 06:25:59;;;;;;;;;17.33;17.33;;;;;11.17;100.00;101822.22;4857301;29;45343;-87
2022/10/07 06:28:31;;;;;;;;;19.33;16.67;;;;;11.23;100.00;101821.50;4859179;29;47469;-86
2022/10/07 06:30:56;;;;;;;;;18.67;17.67;;;;;11.26;100.00;101813.59;4872661;29;45611;-86
2022/10/07 06:33:22;;;;;;;;;18.33;17.00;;;;;11.31;100.00;101813.72;4865531;29;45373;-86
2022/10/07 06:35:47;;;;;;;;;16.33;15.00;;;;;11.35;100.00;101813.88;4857443;29;45354;-84
2022/10/07 06:38:13;;;;;;;;;12.67;12.67;;;;;11.40;100.00;101817.53;4863505;29;47168;-83
2022/10/07 06:40:39;;;;;;;;;17.00;13.33;;;;;11.43;100.00;101810.50;4855991;29;45957;-82
2022/10/07 06:43:04;;;;;;;;;12.67;12.67;;;;;11.53;100.00;101817.88;4859796;29;45490;-84
2022/10/07 06:45:32;;;;;;;;;13.67;13.00;;;;;11.57;100.00;101819.75;4855473;29;45486;-83
2022/10/07 06:47:57;;;;;;;;;13.67;11.67;;;;;11.65;100.00;101828.88;4870275;29;45597;-83
2022/10/07 06:50:24;;;;;;;;;14.67;12.67;;;;;11.72;100.00;101817.53;4854283;29;45530;-84
2022/10/07 06:52:50;;;;;;;;;16.00;14.33;;;;;11.71;100.00;101802.38;4872724;29;45335;-84
2022/10/07 06:55:16;;;;;;;;;11.33;11.00;;;;;11.80;100.00;101813.28;4865856;29;45447;-84
2022/10/07 06:57:42;;;;;;;;;10.33;10.33;;;;;11.92;100.00;101823.41;4872350;29;48188;-86
2022/10/07 07:00:08;;;;;;;;;9.00;9.00;;;;;12.02;100.00;101821.91;4857256;29;45324;-84
2022/10/07 07:02:35;;;;;;;;;14.00;12.67;;;;;12.08;100.00;101830.06;4873652;29;45437;-83
2022/10/07 07:05:03;;;;;;;;;14.33;11.67;;;;;12.15;100.00;101821.31;4873989;29;45480;-82
2022/10/07 07:07:29;;;;;;;;;13.67;13.67;;;;;12.24;100.00;101818.00;4872534;29;47026;-83
2022/10/07 07:09:55;;;;;;;;;12.33;11.67;;;;;12.32;100.00;101821.75;4885032;29;45442;-82
2022/10/07 07:12:24;;;;;;;;;13.67;11.00;;;;;12.36;100.00;101825.38;4881295;29;45434;-83
2022/10/07 07:14:55;;;;;;;;;16.00;16.00;;;;;12.41;100.00;101823.72;4892451;29;44815;-83
2022/10/07 07:17:21;;;;;;;;;15.00;11.00;;;;;12.54;100.00;101833.84;4897204;28;46650;-85
2022/10/07 07:19:46;;;;;;;;;12.33;12.33;;;;;12.61;100.00;101830.44;4890148;29;45315;-83
2022/10/07 07:22:15;;;;;;;;;15.67;12.33;;;;;12.70;100.00;101826.16;4879644;28;45399;-82
2022/10/07 07:24:41;;;;;;;;;13.00;13.00;;;;;12.78;100.00;101821.91;4894851;29;45477;-81
2022/10/07 07:30:30;;;;;;;;;12.67;12.33;;;;;12.90;100.00;101808.81;4894030;29;45188;-81
2022/10/07 07:32:56;;;;;;;;;12.33;12.33;;;;;12.98;100.00;101809.88;4876961;29;45833;-81
2022/10/07 07:35:23;;;;;;;;;18.67;14.00;;;;;13.04;100.00;101805.56;4892014;29;44846;-83
2022/10/07 07:37:49;;;;;;;;;16.67;14.67;;;;;13.08;100.00;101799.41;4885450;29;47049;-81
2022/10/07 07:40:16;;;;;;;;;10.00;10.00;;;;;13.13;100.00;101803.09;4878509;29;45414;-81
2022/10/07 07:42:42;;;;;;;;;18.33;16.67;;;;;13.17;100.00;101802.28;4896358;29;45249;-82
2022/10/07 07:45:07;;;;;;;;;19.00;13.67;;;;;13.24;100.00;101797.97;4881896;29;45699;-82
2022/10/07 07:47:34;;;;;;;;;16.33;14.67;;;;;13.36;100.00;101803.56;4897407;29;45339;-82
2022/10/07 07:50:02;;;;;;;;;16.33;15.33;;;;;13.44;100.00;101803.72;4881001;29;45510;-83
2022/10/07 07:52:31;;;;;;;;;16.00;15.00;;;;;13.52;100.00;101807.44;4895735;29;45771;-83
2022/10/07 07:55:04;;;;;;;;;21.67;19.67;;;;;13.63;100.00;101803.19;4882140;29;45491;-83
2022/10/07 07:57:30;;;;;;;;;17.00;17.00;;;;;13.75;100.00;101802.50;4877758;29;48232;-83
2022/10/07 07:59:59;;;;;;;;;20.67;18.67;;;;;13.88;100.00;101804.56;4888305;29;45419;-83
2022/10/07 08:02:26;;;;;;;;;21.67;19.67;;;;;13.98;100.00;101801.16;4895946;29;45659;-84
2022/10/07 08:04:55;;;;;;;;;15.67;15.67;;;;;14.10;100.00;101795.13;4881029;29;45404;-86
2022/10/07 08:07:21;;;;;;;;;16.00;15.33;;;;;14.17;100.00;101797.00;4882916;29;45318;-85
2022/10/07 08:09:46;;;;;;;;;23.33;20.67;;;;;14.21;100.00;101790.81;4896083;29;44719;-85
2022/10/07 08:12:13;;;;;;;;;24.67;22.00;;;;;14.28;100.00;101788.25;4892773;29;45278;-86
2022/10/07 08:14:40;;;;;;;;;21.33;21.33;;;;;14.30;100.00;101778.47;4881658;29;44876;-84
2022/10/07 08:17:23;;;;;;;;;18.67;18.67;;;;;14.43;100.00;101790.28;4882637;29;47364;-84
2022/10/07 08:19:50;;;;;;;;;23.00;18.33;;;;;14.44;100.00;101782.28;4901351;29;44789;-84
2022/10/07 08:22:17;;;;;;;;;18.33;18.33;;;;;14.47;100.00;101781.41;4907650;29;44834;-83
2022/10/07 08:24:47;;;;;;;;;19.67;19.67;;;;;14.50;100.00;101781.44;4890951;29;45514;-83
2022/10/07 08:27:13;;;;;;;;;21.00;18.33;;;;;14.55;100.00;101782.41;4896585;29;47041;-84
2022/10/07 08:29:38;;;;;;;;;20.33;20.00;;;;;14.68;100.00;101783.50;4911022;29;45267;-84
2022/10/07 08:32:04;;;;;;;;;21.67;20.67;;;;;14.69;100.00;101764.81;4888917;29;45019;-82
2022/10/07 08:34:29;;;;;;;;;22.00;18.67;;;;;14.89;100.00;101773.09;4896427;29;44865;-84
2022/10/07 08:36:55;;;;;;;;;24.00;21.33;;;;;14.97;100.00;101771.41;4883503;29;47079;-84
2022/10/07 08:39:25;;;;;;;;;23.00;19.33;;;;;15.08;100.00;101768.84;4883084;29;45463;-83
2022/10/07 08:42:00;;;;;;;;;22.33;20.67;;;;;15.15;100.00;101769.84;4886891;29;45521;-84
2022/10/07 08:44:35;;;;;;;;;19.00;17.33;;;;;15.24;100.00;101752.97;4882048;29;45336;-83
2022/10/07 08:47:49;;;;;;;;;23.67;23.67;;;;;15.31;100.00;101749.47;4879706;29;46661;-82
2022/10/07 08:50:25;;;;;;;;;20.00;18.33;;;;;15.33;100.00;101743.25;4873575;29;45478;-84
2022/10/07 08:52:52;;;;;;;;;15.00;14.33;;;;;15.44;100.00;101747.81;4894961;29;45304;-83
2022/10/07 08:55:27;;;;;;;;;13.00;12.67;;;;;15.46;100.00;101743.38;4894868;29;45395;-82
2022/10/07 08:58:10;;;;;;;;;20.33;18.00;;;;;15.54;98.63;101752.38;4894131;29;47178;-83
2022/10/07 09:01:02;;;;;;;;;12.67;12.67;;;;;15.53;99.90;101743.47;4878252;29;45432;-82
2022/10/07 09:04:09;;;;;;;;;17.00;11.33;;;;;15.61;98.87;101738.13;4877926;29;45067;-84
2022/10/07 09:10:09;;;;;;;;;13.33;13.00;;;;;15.71;97.98;101744.50;4896232;29;45474;-84
2022/10/07 09:12:50;;;;;;;;;11.00;9.33;;;;;15.69;96.99;101733.75;4897887;29;45402;-85
2022/10/07 09:15:29;;;;;;;;;12.67;11.67;;;;;15.60;97.45;101720.28;4892858;29;45482;-84
2022/10/07 09:18:03;;;;;;;;;13.00;11.67;;;;;15.71;97.87;101729.28;4896333;29;45403;-83
2022/10/07 09:20:35;;;;;;;;;14.00;13.00;;;;;15.73;98.14;101721.31;4896861;29;46078;-84
2022/10/07 09:23:03;;;;;;;;;10.67;10.00;;;;;15.81;98.57;101719.56;4895752;29;45423;-83
2022/10/07 09:25:31;;;;;;;;;9.33;9.33;;;;;15.90;98.31;101714.31;4879193;29;45532;-84
2022/10/07 09:28:00;;;;;;;;;10.67;10.67;;;;;15.98;98.03;101709.88;4891280;29;45307;-85
2022/10/07 09:30:31;;;;;;;;;10.00;10.00;;;;;15.98;96.85;101693.78;4879450;29;46937;-84
2022/10/07 09:32:57;;;;;;;;;10.00;10.00;;;;;16.11;96.50;101707.28;4877493;29;45435;-84
2022/10/07 09:35:25;;;;;;;;;10.00;9.00;;;;;16.14;94.65;101701.97;4884700;29;45327;-86
2022/10/07 09:41:31;;;;;;;;;7.00;7.00;;;;;16.20;95.78;101700.19;4896616;29;45504;-84
2022/10/07 09:44:17;;;;;;;;;7.00;6.00;;;;;16.31;94.75;101688.63;4894970;29;45349;-85
2022/10/07 09:46:58;;;;;;;;;5.67;5.67;;;;;16.37;94.95;101688.66;4895509;29;45347;-85
2022/10/07 09:49:26;;;;;;;;;2.00;0.00;;;;;16.47;91.58;101685.13;4879246;29;44800;-84
2022/10/07 09:52:14;;;;;;;;;7.00;7.00;;;;;16.50;92.01;101682.47;4894260;29;46949;-85
2022/10/07 09:54:42;;;;;;;;;10.33;5.33;;;;;16.57;92.40;101676.22;4894838;29;45465;-82
2022/10/07 09:57:24;;;;;;;;;9.67;6.33;;;;;16.68;90.92;101678.06;4894737;29;45454;-83
2022/10/07 10:00:11;;;;;;;;;5.00;5.00;;;;;16.72;91.03;101669.13;4879193;29;45889;-83
2022/10/07 10:02:39;;;;;;;;;7.33;7.00;;;;;16.75;88.20;101664.66;4894819;29;46842;-84
2022/10/07 10:05:27;;;;;;;;;6.33;5.00;;;;;16.77;88.34;101653.91;4894431;29;45382;-84
2022/10/07 10:08:19;;;;;;;;;5.00;5.00;;;;;16.84;87.56;101657.56;4894451;29;45319;-84
2022/10/07 10:11:00;;;;;;;;;5.33;5.33;;;;;16.90;88.77;101655.75;4895342;29;45371;-83
2022/10/07 10:13:37;;;;;;;;;5.33;3.00;;;;;16.96;86.61;101652.19;4909435;29;46441;-82
2022/10/07 10:16:06;;;;;;;;;4.67;3.67;;;;;16.99;85.96;101645.06;4888568;29;45395;-81
2022/10/07 10:18:41;;;;;;;;;4.00;2.50;;;;;17.05;83.34;101641.50;4908643;29;44860;-82
2022/10/07 10:21:28;;;;;;;;;3.00;3.00;;;;;17.07;85.51;101638.81;4878499;29;44758;-84
2022/10/07 10:27:24;;;;;;;;;2.00;2.00;;;;;17.14;83.18;101629.84;4908963;29;44914;-83
2022/10/07 10:30:21;;;;;;;;;4.00;2.33;;;;;17.20;80.70;101629.84;4912018;29;45442;-84
2022/10/07 10:32:59;;;;;;;;;3.00;3.00;;;;;17.20;81.64;101632.53;4864139;29;45461;-84
2022/10/07 10:35:30;;;;;;;;;4.67;2.00;;;;;17.22;80.89;101621.78;4861049;29;46832;-84
2022/10/07 10:38:23;;;;;;;;;4.00;2.33;;;;;17.27;79.42;101626.28;4877024;29;45390;-85
2022/10/07 10:41:08;;;;;;;;;5.00;3.00;;;;;17.31;80.59;101625.38;4893567;29;44833;-87
2022/10/07 10:44:11;;;;;;;;;4.67;4.00;;;;;17.31;80.81;101621.78;4876359;29;45592;-83
2022/10/07 10:46:43;;;;;;;;;6.67;3.67;;;;;17.32;78.56;101618.22;4863828;29;47950;-84
2022/10/07 10:49:24;;;;;;;;;4.67;3.33;;;;;17.33;80.15;101617.28;4877612;29;45278;-84
2022/10/07 10:52:08;;;;;;;;;4.00;3.67;;;;;17.34;76.69;101617.31;4877003;29;45430;-85
2022/10/07 10:55:04;;;;;;;;;3.00;3.00;;;;;17.36;77.86;101615.50;4893937;29;45550;-84
2022/10/07 10:57:52;;;;;;;;;3.00;3.00;;;;;17.40;78.55;101609.22;4893602;29;46314;-84
2022/10/07 11:00:22;;;;;;;;;3.67;3.67;;;;;17.44;76.69;101601.19;4909546;29;45464;-83
2022/10/07 11:02:58;;;;;;;;;5.00;3.00;;;;;17.47;77.04;101599.41;4914171;29;45737;-84
2022/10/07 11:05:33;;;;;;;;;3.00;2.00;;;;;17.49;78.45;101588.59;4896181;29;44889;-83
2022/10/07 11:08:28;;;;;;;;;4.00;4.00;;;;;17.44;77.43;101575.19;4910920;29;45171;-83
2022/10/07 11:11:07;;;;;;;;;3.00;3.00;;;;;17.55;78.51;101591.28;4895818;29;45579;-84
2022/10/07 11:14:08;;;;;;;;;5.00;3.67;;;;;17.59;78.45;101575.19;4884664;29;45316;-83
2022/10/07 11:17:00;;;;;;;;;3.33;3.33;;;;;17.66;78.43;101564.41;4900840;28;45472;-85
2022/10/07 11:19:55;;;;;;;;;2.00;2.00;;;;;17.66;75.72;101562.59;4891581;29;46971;-83
2022/10/07 11:22:33;;;;;;;;;2.00;2.00;;;;;17.65;76.18;101562.59;4881666;29;45436;-84
2022/10/07 11:25:16;;;;;;;;;4.00;2.00;;;;;17.72;76.57;101565.28;4881216;29;45390;-83
2022/10/07 11:27:45;;;;;;;;;4.67;3.00;;;;;17.74;74.87;101559.91;4897685;29;44840;-85
2022/10/07 11:30:19;;;;;;;;;3.67;2.33;;;;;17.82;72.40;101560.78;4896101;29;45403;-84
2022/10/07 11:33:23;;;;;;;;;2.33;2.33;;;;;17.80;74.97;101555.38;4894621;29;45312;-84
2022/10/07 11:36:11;;;;;;;;;2.00;2.00;;;;;17.84;75.24;101544.66;4890727;29;44821;-84
2022/10/07 11:38:38;;;;;;;;;6.00;4.00;;;;;17.91;72.24;101546.41;4886539;29;45389;-81
2022/10/07 11:41:07;;;;;;;;;3.00;3.00;;;;;17.92;73.72;101541.03;4895713;29;46409;-84
2022/10/07 11:43:45;;;;;;;;;2.25;2.25;;;;;17.97;74.79;101546.41;4895425;29;45488;-84
2022/10/07 11:46:25;;;;;;;;;3.00;2.67;;;;;18.01;74.27;101540.09;4878980;29;44777;-84
2022/10/07 11:49:11;;;;;;;;;3.00;3.00;;;;;18.03;74.73;101534.72;4895196;29;45563;-84
2022/10/07 11:51:46;;;;;;;;;2.00;1.33;;;;;18.03;73.83;101530.22;4893324;29;46111;-84
2022/10/07 11:54:16;;;;;;;;;2.33;2.33;;;;;18.05;73.00;101522.16;4876650;29;45515;-84
2022/10/07 11:56:58;;;;;;;;;4.25;2.75;;;;;18.08;73.74;101522.16;4876637;29;45477;-84
2022/10/07 11:59:46;;;;;;;;;4.33;3.00;;;;;18.11;71.93;101516.72;4894212;29;45346;-83
2022/10/07 12:02:27;;;;;;;;;2.75;2.00;;;;;18.10;72.07;101510.47;4902033;29;46351;-83
2022/10/07 12:05:00;;;;;;;;;1.00;1.00;;;;;18.09;71.31;101505.97;4909082;29;44791;-82
2022/10/07 12:07:34;;;;;;;;;3.33;2.00;;;;;18.10;73.15;101502.38;4893303;29;45492;-85
2022/10/07 12:10:02;;;;;;;;;3.00;3.00;;;;;18.09;71.91;101492.50;4889702;29;45580;-84